sensor_id;sensor_type;location;lat;lon;timestamp;P1;durP1;ratioP1;P2;durP2;ratioP2
22525;SDS011;11429;50.842;4.386;2023-11-21T00:00:00;41.10;;;23.48;;
22525;SDS011;11429;50.842;4.386;2023-11-21T00:02:26;46.28;;;23.63;;
22525;SDS011;11429;50.842;4.386;2023-11-21T00:04:55;44.65;;;23.92;;
22525;SDS011;11429;50.842;4.386;2023-11-21T00:07:20;44.97;;;24.80;;
22525;SDS011;11429;50.842;4.386;2023-11-21T00:09:46;41.08;;;23.63;;
22525;SDS011;11429;50.842;4.386;2023-11-21T00:12:12;42.20;;;23.52;;
22525;SDS011;11429;50.842;4.386;2023-11-21T00:14:39;46.83;;;24.42;;
22525;SDS011;11429;50.842;4.386;2023-11-21T00:17:05;48.28;;;24.25;;
22525;SDS011;11429;50.842;4.386;2023-11-21T00:19:31;43.92;;;23.88;;
22525;SDS011;11429;50.842;4.386;2023-11-21T00:21:58;44.08;;;23.88;;
22525;SDS011;11429;50.842;4.386;2023-11-21T00:24:24;47.85;;;23.50;;
22525;SDS011;11429;50.842;4.386;2023-11-21T00:26:51;40.92;;;24.80;;
22525;SDS011;11429;50.842;4.386;2023-11-21T00:29:16;46.08;;;24.10;;
22525;SDS011;11429;50.842;4.386;2023-11-21T00:31:43;41.17;;;23.17;;
22525;SDS011;11429;50.842;4.386;2023-11-21T00:34:10;43.67;;;22.98;;
22525;SDS011;11429;50.842;4.386;2023-11-21T00:36:37;42.25;;;23.52;;
22525;SDS011;11429;50.842;4.386;2023-11-21T00:39:02;45.20;;;25.15;;
22525;SDS011;11429;50.842;4.386;2023-11-21T00:41:29;48.28;;;26.20;;
22525;SDS011;11429;50.842;4.386;2023-11-21T00:43:54;45.67;;;25.60;;
22525;SDS011;11429;50.842;4.386;2023-11-21T00:46:20;47.85;;;26.20;;
22525;SDS011;11429;50.842;4.386;2023-11-21T00:48:46;50.53;;;25.63;;
22525;SDS011;11429;50.842;4.386;2023-11-21T00:51:12;47.95;;;25.98;;
22525;SDS011;11429;50.842;4.386;2023-11-21T00:53:38;47.78;;;25.67;;
22525;SDS011;11429;50.842;4.386;2023-11-21T00:56:04;49.72;;;27.08;;
22525;SDS011;11429;50.842;4.386;2023-11-21T00:58:30;50.13;;;26.95;;
22525;SDS011;11429;50.842;4.386;2023-11-21T01:00:56;46.75;;;26.05;;
22525;SDS011;11429;50.842;4.386;2023-11-21T01:03:22;48.10;;;27.35;;
22525;SDS011;11429;50.842;4.386;2023-11-21T01:05:48;53.15;;;27.50;;
22525;SDS011;11429;50.842;4.386;2023-11-21T01:08:15;43.05;;;25.55;;
22525;SDS011;11429;50.842;4.386;2023-11-21T01:10:41;45.88;;;25.13;;
22525;SDS011;11429;50.842;4.386;2023-11-21T01:13:06;44.28;;;25.02;;
22525;SDS011;11429;50.842;4.386;2023-11-21T01:15:33;50.13;;;25.83;;
22525;SDS011;11429;50.842;4.386;2023-11-21T01:17:59;49.15;;;25.52;;
22525;SDS011;11429;50.842;4.386;2023-11-21T01:20:25;40.85;;;24.42;;
22525;SDS011;11429;50.842;4.386;2023-11-21T01:22:51;47.80;;;25.08;;
22525;SDS011;11429;50.842;4.386;2023-11-21T01:25:18;45.20;;;26.77;;
22525;SDS011;11429;50.842;4.386;2023-11-21T01:27:46;50.58;;;26.13;;
22525;SDS011;11429;50.842;4.386;2023-11-21T01:30:12;45.25;;;27.25;;
22525;SDS011;11429;50.842;4.386;2023-11-21T01:32:38;43.15;;;26.77;;
22525;SDS011;11429;50.842;4.386;2023-11-21T01:35:04;40.00;;;24.63;;
22525;SDS011;11429;50.842;4.386;2023-11-21T01:37:31;49.92;;;27.25;;
22525;SDS011;11429;50.842;4.386;2023-11-21T01:39:58;39.72;;;25.08;;
22525;SDS011;11429;50.842;4.386;2023-11-21T01:42:24;37.20;;;23.85;;
22525;SDS011;11429;50.842;4.386;2023-11-21T01:44:50;39.42;;;23.58;;
22525;SDS011;11429;50.842;4.386;2023-11-21T01:47:16;44.20;;;24.95;;
22525;SDS011;11429;50.842;4.386;2023-11-21T01:49:45;41.83;;;25.00;;
22525;SDS011;11429;50.842;4.386;2023-11-21T01:52:12;41.35;;;24.13;;
22525;SDS011;11429;50.842;4.386;2023-11-21T01:54:38;42.05;;;24.30;;
22525;SDS011;11429;50.842;4.386;2023-11-21T01:57:04;45.45;;;24.83;;
22525;SDS011;11429;50.842;4.386;2023-11-21T01:59:35;37.97;;;22.10;;
22525;SDS011;11429;50.842;4.386;2023-11-21T02:02:05;38.90;;;21.83;;
22525;SDS011;11429;50.842;4.386;2023-11-21T02:04:34;47.10;;;23.50;;
22525;SDS011;11429;50.842;4.386;2023-11-21T02:07:04;37.53;;;21.13;;
22525;SDS011;11429;50.842;4.386;2023-11-21T02:09:33;40.45;;;23.15;;
22525;SDS011;11429;50.842;4.386;2023-11-21T02:11:59;35.13;;;22.15;;
22525;SDS011;11429;50.842;4.386;2023-11-21T02:14:25;36.92;;;21.92;;
22525;SDS011;11429;50.842;4.386;2023-11-21T02:16:53;35.60;;;21.58;;
22525;SDS011;11429;50.842;4.386;2023-11-21T02:19:20;32.45;;;21.17;;
22525;SDS011;11429;50.842;4.386;2023-11-21T02:21:54;32.45;;;19.92;;
22525;SDS011;11429;50.842;4.386;2023-11-21T02:24:25;33.08;;;20.05;;
22525;SDS011;11429;50.842;4.386;2023-11-21T02:26:52;32.95;;;19.77;;
22525;SDS011;11429;50.842;4.386;2023-11-21T02:29:18;34.35;;;19.95;;
22525;SDS011;11429;50.842;4.386;2023-11-21T02:31:47;33.90;;;20.73;;
22525;SDS011;11429;50.842;4.386;2023-11-21T02:34:16;36.10;;;21.33;;
22525;SDS011;11429;50.842;4.386;2023-11-21T02:36:43;31.75;;;20.02;;
22525;SDS011;11429;50.842;4.386;2023-11-21T02:39:09;33.30;;;20.50;;
22525;SDS011;11429;50.842;4.386;2023-11-21T02:41:39;30.35;;;18.95;;
22525;SDS011;11429;50.842;4.386;2023-11-21T02:44:05;35.40;;;18.83;;
22525;SDS011;11429;50.842;4.386;2023-11-21T02:46:32;32.20;;;19.23;;
22525;SDS011;11429;50.842;4.386;2023-11-21T02:48:59;34.53;;;19.00;;
22525;SDS011;11429;50.842;4.386;2023-11-21T02:51:26;34.17;;;19.40;;
22525;SDS011;11429;50.842;4.386;2023-11-21T02:53:51;38.88;;;19.02;;
22525;SDS011;11429;50.842;4.386;2023-11-21T02:56:17;29.50;;;17.75;;
22525;SDS011;11429;50.842;4.386;2023-11-21T02:58:43;37.05;;;19.17;;
22525;SDS011;11429;50.842;4.386;2023-11-21T03:01:09;36.55;;;19.42;;
22525;SDS011;11429;50.842;4.386;2023-11-21T03:03:36;27.27;;;18.35;;
22525;SDS011;11429;50.842;4.386;2023-11-21T03:06:08;28.65;;;18.02;;
22525;SDS011;11429;50.842;4.386;2023-11-21T03:08:34;30.38;;;18.52;;
22525;SDS011;11429;50.842;4.386;2023-11-21T03:10:59;32.65;;;18.63;;
22525;SDS011;11429;50.842;4.386;2023-11-21T03:13:25;30.88;;;17.02;;
22525;SDS011;11429;50.842;4.386;2023-11-21T03:15:51;28.90;;;17.17;;
22525;SDS011;11429;50.842;4.386;2023-11-21T03:18:17;24.35;;;16.10;;
22525;SDS011;11429;50.842;4.386;2023-11-21T03:20:45;30.13;;;17.52;;
22525;SDS011;11429;50.842;4.386;2023-11-21T03:23:11;28.40;;;15.85;;
22525;SDS011;11429;50.842;4.386;2023-11-21T03:25:37;29.83;;;15.98;;
22525;SDS011;11429;50.842;4.386;2023-11-21T03:28:02;27.40;;;15.52;;
22525;SDS011;11429;50.842;4.386;2023-11-21T03:30:28;28.92;;;14.95;;
22525;SDS011;11429;50.842;4.386;2023-11-21T03:32:54;28.33;;;15.27;;
22525;SDS011;11429;50.842;4.386;2023-11-21T03:35:20;23.73;;;14.05;;
22525;SDS011;11429;50.842;4.386;2023-11-21T03:37:46;24.58;;;13.38;;
22525;SDS011;11429;50.842;4.386;2023-11-21T03:40:12;22.02;;;11.85;;
22525;SDS011;11429;50.842;4.386;2023-11-21T03:42:38;21.20;;;12.27;;
22525;SDS011;11429;50.842;4.386;2023-11-21T03:45:05;24.20;;;12.73;;
22525;SDS011;11429;50.842;4.386;2023-11-21T03:47:31;26.85;;;15.45;;
22525;SDS011;11429;50.842;4.386;2023-11-21T03:49:57;28.08;;;15.45;;
22525;SDS011;11429;50.842;4.386;2023-11-21T03:52:23;28.90;;;14.60;;
22525;SDS011;11429;50.842;4.386;2023-11-21T03:54:50;30.75;;;16.15;;
22525;SDS011;11429;50.842;4.386;2023-11-21T03:57:15;28.35;;;16.00;;
22525;SDS011;11429;50.842;4.386;2023-11-21T03:59:41;32.83;;;15.68;;
22525;SDS011;11429;50.842;4.386;2023-11-21T04:02:08;27.75;;;17.63;;
22525;SDS011;11429;50.842;4.386;2023-11-21T04:04:34;27.17;;;17.88;;
22525;SDS011;11429;50.842;4.386;2023-11-21T04:07:01;32.42;;;17.48;;
22525;SDS011;11429;50.842;4.386;2023-11-21T04:09:26;33.90;;;19.40;;
22525;SDS011;11429;50.842;4.386;2023-11-21T04:11:53;37.03;;;19.92;;
22525;SDS011;11429;50.842;4.386;2023-11-21T04:14:18;33.97;;;20.30;;
22525;SDS011;11429;50.842;4.386;2023-11-21T04:16:44;28.73;;;19.67;;
22525;SDS011;11429;50.842;4.386;2023-11-21T04:19:10;31.05;;;20.27;;
22525;SDS011;11429;50.842;4.386;2023-11-21T04:21:36;34.05;;;21.98;;
22525;SDS011;11429;50.842;4.386;2023-11-21T04:24:03;32.13;;;21.50;;
22525;SDS011;11429;50.842;4.386;2023-11-21T04:26:29;35.08;;;21.58;;
22525;SDS011;11429;50.842;4.386;2023-11-21T04:28:54;33.50;;;21.98;;
22525;SDS011;11429;50.842;4.386;2023-11-21T04:31:20;34.85;;;21.90;;
22525;SDS011;11429;50.842;4.386;2023-11-21T04:33:46;33.22;;;21.65;;
22525;SDS011;11429;50.842;4.386;2023-11-21T04:36:11;37.28;;;22.83;;
22525;SDS011;11429;50.842;4.386;2023-11-21T04:38:37;35.13;;;22.63;;
22525;SDS011;11429;50.842;4.386;2023-11-21T04:41:03;35.25;;;22.85;;
22525;SDS011;11429;50.842;4.386;2023-11-21T04:43:28;36.80;;;22.42;;
22525;SDS011;11429;50.842;4.386;2023-11-21T04:45:54;40.17;;;23.75;;
22525;SDS011;11429;50.842;4.386;2023-11-21T04:48:20;33.10;;;22.90;;
22525;SDS011;11429;50.842;4.386;2023-11-21T04:50:46;38.33;;;22.55;;
22525;SDS011;11429;50.842;4.386;2023-11-21T04:53:11;39.28;;;23.80;;
22525;SDS011;11429;50.842;4.386;2023-11-21T04:55:39;34.80;;;22.10;;
22525;SDS011;11429;50.842;4.386;2023-11-21T04:58:05;36.20;;;23.00;;
22525;SDS011;11429;50.842;4.386;2023-11-21T05:00:31;37.33;;;23.10;;
22525;SDS011;11429;50.842;4.386;2023-11-21T05:02:57;38.10;;;22.90;;
22525;SDS011;11429;50.842;4.386;2023-11-21T05:05:22;33.67;;;22.50;;
22525;SDS011;11429;50.842;4.386;2023-11-21T05:07:49;38.03;;;23.33;;
22525;SDS011;11429;50.842;4.386;2023-11-21T05:10:14;36.15;;;22.42;;
22525;SDS011;11429;50.842;4.386;2023-11-21T05:12:41;37.72;;;23.67;;
22525;SDS011;11429;50.842;4.386;2023-11-21T05:15:07;39.50;;;25.55;;
22525;SDS011;11429;50.842;4.386;2023-11-21T05:17:38;41.47;;;23.13;;
22525;SDS011;11429;50.842;4.386;2023-11-21T05:20:07;38.53;;;24.92;;
22525;SDS011;11429;50.842;4.386;2023-11-21T05:22:34;38.33;;;24.95;;
22525;SDS011;11429;50.842;4.386;2023-11-21T05:25:01;41.85;;;25.00;;
22525;SDS011;11429;50.842;4.386;2023-11-21T05:27:28;39.33;;;24.08;;
22525;SDS011;11429;50.842;4.386;2023-11-21T05:29:56;35.88;;;23.15;;
22525;SDS011;11429;50.842;4.386;2023-11-21T05:32:23;39.53;;;24.65;;
22525;SDS011;11429;50.842;4.386;2023-11-21T05:34:52;38.65;;;23.55;;
22525;SDS011;11429;50.842;4.386;2023-11-21T05:37:18;34.67;;;24.10;;
22525;SDS011;11429;50.842;4.386;2023-11-21T05:39:43;39.97;;;23.90;;
22525;SDS011;11429;50.842;4.386;2023-11-21T05:42:09;39.15;;;24.25;;
22525;SDS011;11429;50.842;4.386;2023-11-21T05:44:36;40.03;;;24.90;;
22525;SDS011;11429;50.842;4.386;2023-11-21T05:47:07;35.78;;;23.67;;
22525;SDS011;11429;50.842;4.386;2023-11-21T05:49:32;35.55;;;23.98;;
22525;SDS011;11429;50.842;4.386;2023-11-21T05:51:59;41.50;;;23.50;;
22525;SDS011;11429;50.842;4.386;2023-11-21T05:54:24;38.10;;;23.85;;
22525;SDS011;11429;50.842;4.386;2023-11-21T05:56:51;38.55;;;24.70;;
22525;SDS011;11429;50.842;4.386;2023-11-21T05:59:16;36.35;;;23.90;;
22525;SDS011;11429;50.842;4.386;2023-11-21T06:01:42;37.25;;;24.05;;
22525;SDS011;11429;50.842;4.386;2023-11-21T06:04:08;36.20;;;25.23;;
22525;SDS011;11429;50.842;4.386;2023-11-21T06:06:34;36.70;;;23.55;;
22525;SDS011;11429;50.842;4.386;2023-11-21T06:09:00;36.70;;;23.55;;
22525;SDS011;11429;50.842;4.386;2023-11-21T06:11:26;40.38;;;24.02;;
22525;SDS011;11429;50.842;4.386;2023-11-21T06:13:52;37.13;;;24.45;;
22525;SDS011;11429;50.842;4.386;2023-11-21T06:16:20;39.63;;;25.15;;
22525;SDS011;11429;50.842;4.386;2023-11-21T06:18:46;38.50;;;23.30;;
22525;SDS011;11429;50.842;4.386;2023-11-21T06:21:12;36.50;;;24.13;;
22525;SDS011;11429;50.842;4.386;2023-11-21T06:23:38;37.00;;;23.80;;
22525;SDS011;11429;50.842;4.386;2023-11-21T06:26:04;41.03;;;23.88;;
22525;SDS011;11429;50.842;4.386;2023-11-21T06:28:31;39.75;;;23.23;;
22525;SDS011;11429;50.842;4.386;2023-11-21T06:30:57;43.03;;;25.58;;
22525;SDS011;11429;50.842;4.386;2023-11-21T06:33:23;36.40;;;24.98;;
22525;SDS011;11429;50.842;4.386;2023-11-21T06:35:52;37.17;;;24.20;;
22525;SDS011;11429;50.842;4.386;2023-11-21T06:38:18;31.42;;;22.60;;
22525;SDS011;11429;50.842;4.386;2023-11-21T06:40:44;36.63;;;24.75;;
22525;SDS011;11429;50.842;4.386;2023-11-21T06:43:10;41.72;;;25.83;;
22525;SDS011;11429;50.842;4.386;2023-11-21T06:45:36;38.92;;;25.42;;
22525;SDS011;11429;50.842;4.386;2023-11-21T06:48:02;42.42;;;26.25;;
22525;SDS011;11429;50.842;4.386;2023-11-21T06:50:27;39.28;;;26.08;;
22525;SDS011;11429;50.842;4.386;2023-11-21T06:52:53;43.17;;;26.35;;
22525;SDS011;11429;50.842;4.386;2023-11-21T06:55:19;42.30;;;25.20;;
22525;SDS011;11429;50.842;4.386;2023-11-21T06:57:44;44.80;;;26.15;;
22525;SDS011;11429;50.842;4.386;2023-11-21T07:00:11;39.35;;;25.85;;
22525;SDS011;11429;50.842;4.386;2023-11-21T07:02:38;39.15;;;26.52;;
22525;SDS011;11429;50.842;4.386;2023-11-21T07:05:04;40.78;;;27.42;;
22525;SDS011;11429;50.842;4.386;2023-11-21T07:07:30;39.47;;;24.95;;
22525;SDS011;11429;50.842;4.386;2023-11-21T07:09:56;39.70;;;24.95;;
22525;SDS011;11429;50.842;4.386;2023-11-21T07:12:22;43.08;;;27.33;;
22525;SDS011;11429;50.842;4.386;2023-11-21T07:14:50;37.67;;;25.65;;
22525;SDS011;11429;50.842;4.386;2023-11-21T07:17:16;39.20;;;25.45;;
22525;SDS011;11429;50.842;4.386;2023-11-21T07:19:42;43.05;;;26.05;;
22525;SDS011;11429;50.842;4.386;2023-11-21T07:22:08;37.55;;;25.15;;
22525;SDS011;11429;50.842;4.386;2023-11-21T07:24:34;37.95;;;25.15;;
22525;SDS011;11429;50.842;4.386;2023-11-21T07:27:00;38.83;;;24.33;;
22525;SDS011;11429;50.842;4.386;2023-11-21T07:29:26;39.13;;;25.65;;
22525;SDS011;11429;50.842;4.386;2023-11-21T07:31:52;37.67;;;25.65;;
22525;SDS011;11429;50.842;4.386;2023-11-21T07:34:19;41.95;;;25.75;;
22525;SDS011;11429;50.842;4.386;2023-11-21T07:36:46;38.17;;;25.90;;
22525;SDS011;11429;50.842;4.386;2023-11-21T07:39:11;40.88;;;27.27;;
22525;SDS011;11429;50.842;4.386;2023-11-21T07:41:37;56.45;;;33.85;;
22525;SDS011;11429;50.842;4.386;2023-11-21T07:44:10;45.13;;;28.25;;
22525;SDS011;11429;50.842;4.386;2023-11-21T07:46:35;47.95;;;27.98;;
22525;SDS011;11429;50.842;4.386;2023-11-21T07:49:01;45.90;;;29.58;;
22525;SDS011;11429;50.842;4.386;2023-11-21T07:51:27;48.88;;;28.42;;
22525;SDS011;11429;50.842;4.386;2023-11-21T07:53:53;50.40;;;29.80;;
22525;SDS011;11429;50.842;4.386;2023-11-21T07:56:19;53.30;;;29.48;;
22525;SDS011;11429;50.842;4.386;2023-11-21T07:58:45;49.47;;;28.50;;
22525;SDS011;11429;50.842;4.386;2023-11-21T08:01:10;51.08;;;29.27;;
22525;SDS011;11429;50.842;4.386;2023-11-21T08:03:37;49.10;;;27.95;;
22525;SDS011;11429;50.842;4.386;2023-11-21T08:06:02;50.28;;;29.48;;
22525;SDS011;11429;50.842;4.386;2023-11-21T08:08:29;49.35;;;29.17;;
22525;SDS011;11429;50.842;4.386;2023-11-21T08:10:54;46.95;;;28.65;;
22525;SDS011;11429;50.842;4.386;2023-11-21T08:13:23;50.10;;;29.95;;
22525;SDS011;11429;50.842;4.386;2023-11-21T08:15:50;52.17;;;29.58;;
22525;SDS011;11429;50.842;4.386;2023-11-21T08:18:19;54.85;;;29.73;;
22525;SDS011;11429;50.842;4.386;2023-11-21T08:20:44;54.35;;;29.90;;
22525;SDS011;11429;50.842;4.386;2023-11-21T08:23:13;55.53;;;29.00;;
22525;SDS011;11429;50.842;4.386;2023-11-21T08:25:44;53.67;;;31.20;;
22525;SDS011;11429;50.842;4.386;2023-11-21T08:28:10;58.05;;;30.10;;
22525;SDS011;11429;50.842;4.386;2023-11-21T08:30:37;58.55;;;30.10;;
22525;SDS011;11429;50.842;4.386;2023-11-21T08:33:03;52.30;;;29.92;;
22525;SDS011;11429;50.842;4.386;2023-11-21T08:35:29;62.20;;;34.00;;
22525;SDS011;11429;50.842;4.386;2023-11-21T08:37:55;49.35;;;29.17;;
22525;SDS011;11429;50.842;4.386;2023-11-21T08:40:21;56.35;;;30.75;;
22525;SDS011;11429;50.842;4.386;2023-11-21T08:42:47;57.15;;;32.08;;
22525;SDS011;11429;50.842;4.386;2023-11-21T08:45:16;55.10;;;28.77;;
22525;SDS011;11429;50.842;4.386;2023-11-21T08:47:42;52.47;;;29.75;;
22525;SDS011;11429;50.842;4.386;2023-11-21T08:50:11;56.58;;;29.75;;
22525;SDS011;11429;50.842;4.386;2023-11-21T08:52:41;56.72;;;29.83;;
22525;SDS011;11429;50.842;4.386;2023-11-21T08:55:10;55.88;;;28.90;;
22525;SDS011;11429;50.842;4.386;2023-11-21T08:57:37;57.08;;;29.02;;
22525;SDS011;11429;50.842;4.386;2023-11-21T09:00:05;48.22;;;28.05;;
22525;SDS011;11429;50.842;4.386;2023-11-21T09:02:50;54.47;;;30.27;;
22525;SDS011;11429;50.842;4.386;2023-11-21T09:05:15;54.75;;;29.45;;
22525;SDS011;11429;50.842;4.386;2023-11-21T09:07:42;54.42;;;28.08;;
22525;SDS011;11429;50.842;4.386;2023-11-21T09:10:08;56.35;;;29.33;;
22525;SDS011;11429;50.842;4.386;2023-11-21T09:12:35;53.63;;;29.50;;
22525;SDS011;11429;50.842;4.386;2023-11-21T09:15:03;53.53;;;29.55;;
22525;SDS011;11429;50.842;4.386;2023-11-21T09:17:30;57.35;;;29.85;;
22525;SDS011;11429;50.842;4.386;2023-11-21T09:19:56;59.40;;;31.38;;
22525;SDS011;11429;50.842;4.386;2023-11-21T09:22:22;57.25;;;30.05;;
22525;SDS011;11429;50.842;4.386;2023-11-21T09:24:49;70.28;;;32.53;;
22525;SDS011;11429;50.842;4.386;2023-11-21T09:27:16;57.47;;;30.33;;
22525;SDS011;11429;50.842;4.386;2023-11-21T09:29:42;61.65;;;32.65;;
22525;SDS011;11429;50.842;4.386;2023-11-21T09:32:08;63.55;;;30.88;;
22525;SDS011;11429;50.842;4.386;2023-11-21T09:34:37;66.07;;;31.02;;
22525;SDS011;11429;50.842;4.386;2023-11-21T09:37:04;58.10;;;29.67;;
22525;SDS011;11429;50.842;4.386;2023-11-21T09:39:31;59.63;;;29.65;;
22525;SDS011;11429;50.842;4.386;2023-11-21T09:44:45;60.35;;;31.05;;
22525;SDS011;11429;50.842;4.386;2023-11-21T09:47:20;64.05;;;30.60;;
22525;SDS011;11429;50.842;4.386;2023-11-21T09:49:47;56.67;;;30.08;;
22525;SDS011;11429;50.842;4.386;2023-11-21T09:52:28;60.28;;;29.50;;
22525;SDS011;11429;50.842;4.386;2023-11-21T09:54:54;51.10;;;27.95;;
22525;SDS011;11429;50.842;4.386;2023-11-21T09:57:24;56.33;;;28.42;;
22525;SDS011;11429;50.842;4.386;2023-11-21T09:59:54;52.17;;;28.00;;
22525;SDS011;11429;50.842;4.386;2023-11-21T10:02:24;46.05;;;26.42;;
22525;SDS011;11429;50.842;4.386;2023-11-21T10:04:54;43.60;;;24.80;;
22525;SDS011;11429;50.842;4.386;2023-11-21T10:07:21;45.13;;;24.65;;
22525;SDS011;11429;50.842;4.386;2023-11-21T10:09:48;41.20;;;24.13;;
22525;SDS011;11429;50.842;4.386;2023-11-21T10:12:18;38.42;;;22.65;;
22525;SDS011;11429;50.842;4.386;2023-11-21T10:14:48;34.95;;;22.48;;
22525;SDS011;11429;50.842;4.386;2023-11-21T10:17:14;35.25;;;21.90;;
22525;SDS011;11429;50.842;4.386;2023-11-21T10:19:43;41.22;;;24.65;;
22525;SDS011;11429;50.842;4.386;2023-11-21T10:22:12;93.28;;;57.00;;
22525;SDS011;11429;50.842;4.386;2023-11-21T10:24:42;32.17;;;21.65;;
22525;SDS011;11429;50.842;4.386;2023-11-21T10:27:08;31.42;;;21.08;;
22525;SDS011;11429;50.842;4.386;2023-11-21T10:29:34;29.02;;;19.48;;
22525;SDS011;11429;50.842;4.386;2023-11-21T10:32:01;29.80;;;19.88;;
22525;SDS011;11429;50.842;4.386;2023-11-21T10:34:28;27.35;;;18.80;;
22525;SDS011;11429;50.842;4.386;2023-11-21T10:36:54;28.45;;;19.92;;
22525;SDS011;11429;50.842;4.386;2023-11-21T10:39:23;28.20;;;20.15;;
22525;SDS011;11429;50.842;4.386;2023-11-21T10:41:52;34.17;;;21.67;;
22525;SDS011;11429;50.842;4.386;2023-11-21T10:44:20;32.03;;;21.67;;
22525;SDS011;11429;50.842;4.386;2023-11-21T10:46:52;36.40;;;22.77;;
22525;SDS011;11429;50.842;4.386;2023-11-21T10:49:24;43.78;;;30.77;;
22525;SDS011;11429;50.842;4.386;2023-11-21T10:51:51;42.83;;;25.92;;
22525;SDS011;11429;50.842;4.386;2023-11-21T10:54:21;30.95;;;20.02;;
22525;SDS011;11429;50.842;4.386;2023-11-21T10:56:48;31.20;;;22.30;;
22525;SDS011;11429;50.842;4.386;2023-11-21T10:59:16;33.13;;;21.40;;
22525;SDS011;11429;50.842;4.386;2023-11-21T11:01:44;31.85;;;20.90;;
22525;SDS011;11429;50.842;4.386;2023-11-21T11:04:11;30.60;;;20.40;;
22525;SDS011;11429;50.842;4.386;2023-11-21T11:06:43;29.27;;;20.95;;
22525;SDS011;11429;50.842;4.386;2023-11-21T11:09:10;30.20;;;21.20;;
22525;SDS011;11429;50.842;4.386;2023-11-21T11:11:41;35.25;;;22.35;;
22525;SDS011;11429;50.842;4.386;2023-11-21T11:14:10;34.55;;;22.10;;
22525;SDS011;11429;50.842;4.386;2023-11-21T11:16:37;34.47;;;21.73;;
22525;SDS011;11429;50.842;4.386;2023-11-21T11:19:09;36.08;;;24.15;;
22525;SDS011;11429;50.842;4.386;2023-11-21T11:21:43;36.47;;;22.95;;
22525;SDS011;11429;50.842;4.386;2023-11-21T11:27:54;37.10;;;24.55;;
22525;SDS011;11429;50.842;4.386;2023-11-21T11:38:46;41.47;;;25.75;;
22525;SDS011;11429;50.842;4.386;2023-11-21T11:41:19;45.72;;;25.90;;
22525;SDS011;11429;50.842;4.386;2023-11-21T11:43:50;38.97;;;26.33;;
22525;SDS011;11429;50.842;4.386;2023-11-21T11:46:16;39.60;;;26.50;;
22525;SDS011;11429;50.842;4.386;2023-11-21T11:48:42;36.95;;;25.10;;
22525;SDS011;11429;50.842;4.386;2023-11-21T11:51:12;44.47;;;31.15;;
22525;SDS011;11429;50.842;4.386;2023-11-21T11:53:49;42.30;;;27.35;;
22525;SDS011;11429;50.842;4.386;2023-11-21T11:58:56;40.50;;;27.80;;
22525;SDS011;11429;50.842;4.386;2023-11-21T12:01:24;34.97;;;24.23;;
22525;SDS011;11429;50.842;4.386;2023-11-21T12:04:36;30.65;;;23.52;;
22525;SDS011;11429;50.842;4.386;2023-11-21T12:06:45;33.03;;;23.65;;
22525;SDS011;11429;50.842;4.386;2023-11-21T12:09:17;33.03;;;24.45;;
22525;SDS011;11429;50.842;4.386;2023-11-21T12:11:47;30.90;;;23.27;;
22525;SDS011;11429;50.842;4.386;2023-11-21T12:14:14;27.38;;;21.80;;
22525;SDS011;11429;50.842;4.386;2023-11-21T12:16:40;29.20;;;21.70;;
22525;SDS011;11429;50.842;4.386;2023-11-21T12:19:08;24.42;;;19.70;;
22525;SDS011;11429;50.842;4.386;2023-11-21T12:21:37;28.40;;;18.83;;
22525;SDS011;11429;50.842;4.386;2023-11-21T12:24:04;22.42;;;17.48;;
22525;SDS011;11429;50.842;4.386;2023-11-21T12:26:33;19.27;;;16.38;;
22525;SDS011;11429;50.842;4.386;2023-11-21T12:29:02;21.33;;;16.30;;
22525;SDS011;11429;50.842;4.386;2023-11-21T12:31:29;22.17;;;16.15;;
22525;SDS011;11429;50.842;4.386;2023-11-21T12:33:56;20.55;;;16.15;;
22525;SDS011;11429;50.842;4.386;2023-11-21T12:36:22;21.10;;;15.55;;
22525;SDS011;11429;50.842;4.386;2023-11-21T12:38:49;21.05;;;16.48;;
22525;SDS011;11429;50.842;4.386;2023-11-21T12:41:15;18.13;;;14.70;;
22525;SDS011;11429;50.842;4.386;2023-11-21T12:43:42;21.10;;;15.45;;
22525;SDS011;11429;50.842;4.386;2023-11-21T12:46:09;24.10;;;19.75;;
22525;SDS011;11429;50.842;4.386;2023-11-21T12:48:39;22.50;;;16.42;;
22525;SDS011;11429;50.842;4.386;2023-11-21T12:51:09;22.08;;;15.90;;
22525;SDS011;11429;50.842;4.386;2023-11-21T12:53:37;21.10;;;15.93;;
22525;SDS011;11429;50.842;4.386;2023-11-21T12:56:22;16.17;;;14.02;;
22525;SDS011;11429;50.842;4.386;2023-11-21T12:58:53;16.70;;;14.63;;
22525;SDS011;11429;50.842;4.386;2023-11-21T13:01:24;17.95;;;14.18;;
22525;SDS011;11429;50.842;4.386;2023-11-21T13:03:53;16.15;;;13.82;;
22525;SDS011;11429;50.842;4.386;2023-11-21T13:06:19;18.45;;;13.77;;
22525;SDS011;11429;50.842;4.386;2023-11-21T13:08:46;18.13;;;14.68;;
22525;SDS011;11429;50.842;4.386;2023-11-21T13:11:12;19.55;;;14.75;;
22525;SDS011;11429;50.842;4.386;2023-11-21T13:13:40;19.05;;;13.55;;
22525;SDS011;11429;50.842;4.386;2023-11-21T13:16:08;20.95;;;15.63;;
22525;SDS011;11429;50.842;4.386;2023-11-21T13:18:35;20.33;;;15.95;;
22525;SDS011;11429;50.842;4.386;2023-11-21T13:21:02;20.40;;;16.30;;
22525;SDS011;11429;50.842;4.386;2023-11-21T13:23:39;21.08;;;16.85;;
22525;SDS011;11429;50.842;4.386;2023-11-21T13:26:06;22.95;;;15.40;;
22525;SDS011;11429;50.842;4.386;2023-11-21T13:28:33;23.33;;;16.35;;
22525;SDS011;11429;50.842;4.386;2023-11-21T13:31:00;21.90;;;16.58;;
22525;SDS011;11429;50.842;4.386;2023-11-21T13:33:34;19.92;;;16.25;;
22525;SDS011;11429;50.842;4.386;2023-11-21T13:36:06;20.83;;;16.65;;
22525;SDS011;11429;50.842;4.386;2023-11-21T13:38:34;21.45;;;15.73;;
22525;SDS011;11429;50.842;4.386;2023-11-21T13:41:02;18.40;;;15.85;;
22525;SDS011;11429;50.842;4.386;2023-11-21T13:43:28;21.13;;;16.70;;
22525;SDS011;11429;50.842;4.386;2023-11-21T13:45:54;23.85;;;16.27;;
22525;SDS011;11429;50.842;4.386;2023-11-21T13:48:38;21.60;;;16.27;;
22525;SDS011;11429;50.842;4.386;2023-11-21T13:51:08;18.48;;;15.07;;
22525;SDS011;11429;50.842;4.386;2023-11-21T13:53:47;21.77;;;14.88;;
22525;SDS011;11429;50.842;4.386;2023-11-21T13:56:15;18.63;;;14.60;;
22525;SDS011;11429;50.842;4.386;2023-11-21T13:58:49;17.67;;;13.70;;
22525;SDS011;11429;50.842;4.386;2023-11-21T14:01:19;15.30;;;12.95;;
22525;SDS011;11429;50.842;4.386;2023-11-21T14:03:55;14.05;;;12.07;;
22525;SDS011;11429;50.842;4.386;2023-11-21T14:06:27;14.27;;;11.55;;
22525;SDS011;11429;50.842;4.386;2023-11-21T14:08:59;13.05;;;9.82;;
22525;SDS011;11429;50.842;4.386;2023-11-21T14:11:31;11.70;;;9.82;;
22525;SDS011;11429;50.842;4.386;2023-11-21T14:13:59;12.55;;;9.48;;
22525;SDS011;11429;50.842;4.386;2023-11-21T14:16:25;15.38;;;9.95;;
22525;SDS011;11429;50.842;4.386;2023-11-21T14:18:50;13.05;;;9.00;;
22525;SDS011;11429;50.842;4.386;2023-11-21T14:21:38;10.73;;;8.18;;
22525;SDS011;11429;50.842;4.386;2023-11-21T14:24:07;10.05;;;7.72;;
22525;SDS011;11429;50.842;4.386;2023-11-21T14:26:34;10.05;;;7.82;;
22525;SDS011;11429;50.842;4.386;2023-11-21T14:29:00;8.38;;;6.88;;
22525;SDS011;11429;50.842;4.386;2023-11-21T14:31:26;9.40;;;7.25;;
22525;SDS011;11429;50.842;4.386;2023-11-21T14:33:54;8.68;;;7.25;;
22525;SDS011;11429;50.842;4.386;2023-11-21T14:36:20;8.82;;;7.18;;
22525;SDS011;11429;50.842;4.386;2023-11-21T14:38:45;9.70;;;6.47;;
22525;SDS011;11429;50.842;4.386;2023-11-21T14:41:11;9.23;;;7.43;;